KLM29A EHAM-LSZH
Flight info
| Callsign | KLM29A |
|---|---|
| Flight time | 1h 13m |
| Altitude | 35000 |
| Route | EDUPO Z739 MISGO DCT ASBON DCT TUSUK DCT LAMGO/N0417F270 T721 SUL/N0405F250 T721 RILAX |
| Aircraft | A321/M-SDE3FGHIRWY/LB1 |
Departure
| Time | 2026-05-07 16:30 |
|---|---|
| Airport | Amsterdam Airport Schiphol (EHAM) |
Arrival
| Time | 2026-05-07 17:44 |
|---|---|
| Airport | Zürich Airport (LSZH) |
| Time | Latitude | Longitude | Altitude | Speed | Heading |
|---|---|---|---|---|---|
| 2026-05-07 16:06 | 52.31033 | 4.75457 | -1 ft | 0 kts | 148° |
| 2026-05-07 16:10 | 52.31033 | 4.75456 | -1 ft | 0 kts | 148° |
| 2026-05-07 16:16 | 52.31034 | 4.75456 | -1 ft | 0 kts | 148° |
| 2026-05-07 16:21 | 52.31044 | 4.75446 | -1 ft | 4 kts | 140° |
| 2026-05-07 16:21 | 52.31059 | 4.75413 | -1 ft | 4 kts | 100° |
| 2026-05-07 16:22 | 52.31057 | 4.75376 | 0 ft | 2 kts | 58° |
| 2026-05-07 16:22 | 52.31056 | 4.75374 | 0 ft | 0 kts | 58° |
| 2026-05-07 16:24 | 52.31076 | 4.75428 | -1 ft | 11 kts | 58° |
| 2026-05-07 16:25 | 52.31140 | 4.75496 | -1 ft | 12 kts | 2° |
| 2026-05-07 16:25 | 52.31218 | 4.75490 | -1 ft | 11 kts | 357° |
| 2026-05-07 16:25 | 52.31292 | 4.75484 | -1 ft | 10 kts | 357° |
| 2026-05-07 16:25 | 52.31372 | 4.75476 | -1 ft | 12 kts | 356° |
| 2026-05-07 16:26 | 52.31463 | 4.75467 | -1 ft | 13 kts | 356° |
| 2026-05-07 16:26 | 52.31509 | 4.75377 | -1 ft | 11 kts | 269° |
| 2026-05-07 16:26 | 52.31505 | 4.75250 | -1 ft | 14 kts | 267° |
| 2026-05-07 16:26 | 52.31497 | 4.75025 | -1 ft | 26 kts | 266° |
| 2026-05-07 16:27 | 52.31489 | 4.74754 | -1 ft | 12 kts | 269° |
| 2026-05-07 16:27 | 52.31531 | 4.74668 | -1 ft | 10 kts | 348° |
| 2026-05-07 16:27 | 52.31598 | 4.74660 | -1 ft | 9 kts | 1° |
| 2026-05-07 16:27 | 52.31652 | 4.74696 | 0 ft | 8 kts | 40° |
| 2026-05-07 16:28 | 52.31667 | 4.74764 | -1 ft | 1 kts | 88° |
| 2026-05-07 16:28 | 52.31667 | 4.74770 | -1 ft | 0 kts | 88° |
| 2026-05-07 16:29 | 52.31670 | 4.74873 | -2 ft | 32 kts | 87° |
| 2026-05-07 16:29 | 52.31697 | 4.75638 | -2 ft | 98 kts | 86° |
| 2026-05-07 16:30 | 52.31745 | 4.77043 | -2 ft | 147 kts | 86° |
| 2026-05-07 16:30 | 52.31803 | 4.78847 | 312 ft | 159 kts | 86° |
| 2026-05-07 16:30 | 52.31856 | 4.80636 | 917 ft | 158 kts | 84° |
| 2026-05-07 16:30 | 52.31916 | 4.82443 | 1443 ft | 164 kts | 85° |
| 2026-05-07 16:31 | 52.31984 | 4.84389 | 1801 ft | 179 kts | 85° |
| 2026-05-07 16:31 | 52.31999 | 4.86531 | 2054 ft | 200 kts | 96° |
| 2026-05-07 16:31 | 52.31526 | 4.88816 | 2249 ft | 226 kts | 111° |
| 2026-05-07 16:31 | 52.30870 | 4.91307 | 2641 ft | 248 kts | 112° |
| 2026-05-07 16:32 | 52.30175 | 4.93926 | 3436 ft | 255 kts | 112° |
| 2026-05-07 16:32 | 52.29489 | 4.96639 | 4220 ft | 261 kts | 108° |
| 2026-05-07 16:32 | 52.28945 | 4.99476 | 5100 ft | 263 kts | 107° |
| 2026-05-07 16:32 | 52.28438 | 5.02366 | 5978 ft | 265 kts | 106° |
| 2026-05-07 16:33 | 52.27941 | 5.05286 | 6793 ft | 268 kts | 106° |
| 2026-05-07 16:33 | 52.27438 | 5.08244 | 7530 ft | 273 kts | 107° |
| 2026-05-07 16:33 | 52.26923 | 5.11264 | 8245 ft | 278 kts | 107° |
| 2026-05-07 16:33 | 52.26395 | 5.14328 | 8967 ft | 284 kts | 108° |
| 2026-05-07 16:34 | 52.25851 | 5.17470 | 9669 ft | 290 kts | 107° |
| 2026-05-07 16:34 | 52.25305 | 5.20618 | 10297 ft | 297 kts | 107° |
| 2026-05-07 16:34 | 52.24676 | 5.23959 | 10467 ft | 319 kts | 112° |
| 2026-05-07 16:34 | 52.23678 | 5.27329 | 10602 ft | 341 kts | 122° |
| 2026-05-07 16:35 | 52.22301 | 5.30570 | 10952 ft | 353 kts | 127° |
| 2026-05-07 16:35 | 52.20862 | 5.33852 | 11562 ft | 358 kts | 127° |
| 2026-05-07 16:35 | 52.19415 | 5.37175 | 12238 ft | 361 kts | 126° |
| 2026-05-07 16:35 | 52.17960 | 5.40531 | 12920 ft | 364 kts | 126° |
| 2026-05-07 16:36 | 52.16491 | 5.43920 | 13618 ft | 367 kts | 126° |
| 2026-05-07 16:36 | 52.15002 | 5.47345 | 14218 ft | 372 kts | 126° |
| 2026-05-07 16:36 | 52.13500 | 5.50788 | 14808 ft | 375 kts | 126° |
| 2026-05-07 16:36 | 52.11980 | 5.54264 | 15402 ft | 378 kts | 126° |
| 2026-05-07 16:37 | 52.10442 | 5.57773 | 15978 ft | 381 kts | 126° |
| 2026-05-07 16:37 | 52.08892 | 5.61302 | 16545 ft | 385 kts | 126° |
| 2026-05-07 16:37 | 52.07348 | 5.64813 | 17138 ft | 388 kts | 126° |
| 2026-05-07 16:37 | 52.05725 | 5.68338 | 17685 ft | 391 kts | 131° |
| 2026-05-07 16:38 | 52.03931 | 5.71683 | 18230 ft | 394 kts | 131° |
| 2026-05-07 16:38 | 52.02120 | 5.75063 | 18695 ft | 397 kts | 131° |
| 2026-05-07 16:38 | 52.00303 | 5.78454 | 19168 ft | 400 kts | 131° |
| 2026-05-07 16:38 | 51.98470 | 5.81874 | 19648 ft | 403 kts | 132° |
| 2026-05-07 16:39 | 51.96627 | 5.85311 | 20126 ft | 405 kts | 132° |
| 2026-05-07 16:39 | 51.94769 | 5.88780 | 20593 ft | 408 kts | 132° |
| 2026-05-07 16:39 | 51.92922 | 5.92227 | 21056 ft | 411 kts | 132° |
| 2026-05-07 16:39 | 51.91039 | 5.95737 | 21516 ft | 414 kts | 132° |
| 2026-05-07 16:40 | 51.89142 | 5.99267 | 21979 ft | 416 kts | 132° |
| 2026-05-07 16:40 | 51.87228 | 6.02819 | 22421 ft | 419 kts | 132° |
| 2026-05-07 16:40 | 51.85305 | 6.06389 | 22877 ft | 422 kts | 133° |
| 2026-05-07 16:40 | 51.83366 | 6.09974 | 23317 ft | 425 kts | 133° |
| 2026-05-07 16:41 | 51.81401 | 6.13588 | 23743 ft | 427 kts | 133° |
| 2026-05-07 16:41 | 51.79432 | 6.17196 | 24100 ft | 430 kts | 133° |
| 2026-05-07 16:41 | 51.77445 | 6.20825 | 24482 ft | 432 kts | 133° |
| 2026-05-07 16:41 | 51.75445 | 6.24471 | 24841 ft | 434 kts | 133° |
| 2026-05-07 16:42 | 51.73443 | 6.28120 | 25216 ft | 436 kts | 133° |
| 2026-05-07 16:42 | 51.71452 | 6.31746 | 25570 ft | 438 kts | 133° |
| 2026-05-07 16:42 | 51.69424 | 6.35443 | 25940 ft | 440 kts | 133° |
| 2026-05-07 16:42 | 51.67391 | 6.39148 | 26297 ft | 442 kts | 133° |
| 2026-05-07 16:43 | 51.65341 | 6.42870 | 26651 ft | 444 kts | 133° |
| 2026-05-07 16:43 | 51.63275 | 6.46607 | 26998 ft | 446 kts | 133° |
| 2026-05-07 16:43 | 51.61207 | 6.50345 | 27304 ft | 449 kts | 133° |
| 2026-05-07 16:43 | 51.59114 | 6.54126 | 27627 ft | 451 kts | 133° |
| 2026-05-07 16:44 | 51.57026 | 6.57899 | 27947 ft | 454 kts | 133° |
| 2026-05-07 16:44 | 51.54945 | 6.61655 | 28259 ft | 456 kts | 133° |
| 2026-05-07 16:44 | 51.52828 | 6.65462 | 28582 ft | 458 kts | 133° |
| 2026-05-07 16:44 | 51.50701 | 6.69279 | 28891 ft | 460 kts | 133° |
| 2026-05-07 16:45 | 51.48559 | 6.73121 | 29199 ft | 462 kts | 133° |
| 2026-05-07 16:45 | 51.46412 | 6.76970 | 29503 ft | 464 kts | 133° |
| 2026-05-07 16:45 | 51.44258 | 6.80822 | 29904 ft | 464 kts | 133° |
| 2026-05-07 16:45 | 51.42092 | 6.84666 | 30290 ft | 462 kts | 135° |
| 2026-05-07 16:46 | 51.39718 | 6.88134 | 30631 ft | 461 kts | 143° |
| 2026-05-07 16:46 | 51.37078 | 6.91021 | 30977 ft | 459 kts | 149° |
| 2026-05-07 16:46 | 51.34365 | 6.93741 | 31301 ft | 459 kts | 149° |
| 2026-05-07 16:46 | 51.31659 | 6.96456 | 31636 ft | 459 kts | 149° |
| 2026-05-07 16:47 | 51.28988 | 6.99137 | 31986 ft | 459 kts | 149° |
| 2026-05-07 16:47 | 51.26281 | 7.01858 | 32371 ft | 459 kts | 149° |
| 2026-05-07 16:47 | 51.23578 | 7.04573 | 32766 ft | 458 kts | 149° |
| 2026-05-07 16:47 | 51.20876 | 7.07281 | 33127 ft | 457 kts | 149° |
| 2026-05-07 16:48 | 51.18171 | 7.09987 | 33481 ft | 457 kts | 149° |
| 2026-05-07 16:48 | 51.15508 | 7.12649 | 33825 ft | 457 kts | 149° |
| 2026-05-07 16:48 | 51.12812 | 7.15338 | 34101 ft | 457 kts | 148° |
| 2026-05-07 16:48 | 51.10113 | 7.18022 | 34331 ft | 458 kts | 149° |
| 2026-05-07 16:49 | 51.07408 | 7.20707 | 34582 ft | 458 kts | 149° |
| 2026-05-07 16:49 | 51.04713 | 7.23382 | 34841 ft | 458 kts | 149° |
| 2026-05-07 16:49 | 51.02012 | 7.26067 | 35007 ft | 458 kts | 149° |
| 2026-05-07 16:50 | 50.96630 | 7.31395 | 35059 ft | 454 kts | 149° |
| 2026-05-07 16:50 | 50.91280 | 7.36677 | 35056 ft | 453 kts | 149° |
| 2026-05-07 16:51 | 50.85926 | 7.41943 | 35054 ft | 453 kts | 149° |
| 2026-05-07 16:51 | 50.80567 | 7.47194 | 35053 ft | 453 kts | 149° |
| 2026-05-07 16:52 | 50.75214 | 7.52432 | 35060 ft | 453 kts | 149° |
| 2026-05-07 16:52 | 50.69866 | 7.57700 | 35061 ft | 453 kts | 148° |
| 2026-05-07 16:53 | 50.64596 | 7.63163 | 35064 ft | 453 kts | 147° |
| 2026-05-07 16:53 | 50.59350 | 7.68681 | 35054 ft | 454 kts | 147° |
| 2026-05-07 16:54 | 50.54081 | 7.74158 | 35052 ft | 454 kts | 148° |
| 2026-05-07 16:54 | 50.48790 | 7.79590 | 35051 ft | 454 kts | 148° |
| 2026-05-07 16:55 | 50.43516 | 7.84961 | 35063 ft | 455 kts | 148° |
| 2026-05-07 16:55 | 50.38219 | 7.90373 | 35068 ft | 454 kts | 148° |
| 2026-05-07 16:56 | 50.32926 | 7.95781 | 35066 ft | 454 kts | 148° |
| 2026-05-07 16:56 | 50.24972 | 8.03873 | 35066 ft | 454 kts | 148° |
| 2026-05-07 16:57 | 50.19667 | 8.09244 | 35063 ft | 454 kts | 148° |
| 2026-05-07 16:57 | 50.14328 | 8.14516 | 35063 ft | 454 kts | 153° |
| 2026-05-07 16:58 | 50.08465 | 8.18023 | 35058 ft | 451 kts | 163° |
| 2026-05-07 16:58 | 50.02488 | 8.21071 | 35058 ft | 452 kts | 163° |
| 2026-05-07 16:59 | 49.96511 | 8.24139 | 35059 ft | 452 kts | 163° |
| 2026-05-07 16:59 | 49.90525 | 8.27192 | 35065 ft | 453 kts | 163° |
| 2026-05-07 17:00 | 49.84533 | 8.30230 | 35053 ft | 453 kts | 163° |
| 2026-05-07 17:00 | 49.78544 | 8.33263 | 35058 ft | 453 kts | 163° |
| 2026-05-07 17:01 | 49.72587 | 8.36272 | 35060 ft | 454 kts | 163° |
| 2026-05-07 17:01 | 49.66549 | 8.39319 | 35053 ft | 454 kts | 163° |
| 2026-05-07 17:02 | 49.60579 | 8.42329 | 35055 ft | 454 kts | 163° |
| 2026-05-07 17:02 | 49.54582 | 8.45336 | 35067 ft | 454 kts | 164° |
| 2026-05-07 17:03 | 49.48568 | 8.48323 | 35068 ft | 454 kts | 164° |
| 2026-05-07 17:03 | 49.42571 | 8.51323 | 35059 ft | 454 kts | 163° |
| 2026-05-07 17:04 | 49.36559 | 8.54326 | 35063 ft | 454 kts | 164° |
| 2026-05-07 17:04 | 49.30550 | 8.57304 | 35063 ft | 454 kts | 164° |
| 2026-05-07 17:05 | 49.25551 | 8.59771 | 35062 ft | 454 kts | 164° |
| 2026-05-07 17:05 | 49.19534 | 8.62734 | 35045 ft | 454 kts | 164° |
| 2026-05-07 17:06 | 49.12555 | 8.66188 | 35055 ft | 454 kts | 164° |
| 2026-05-07 17:06 | 49.07516 | 8.68662 | 35058 ft | 454 kts | 164° |
| 2026-05-07 17:07 | 49.01505 | 8.71604 | 35057 ft | 454 kts | 164° |
| 2026-05-07 17:07 | 48.95492 | 8.74543 | 35051 ft | 454 kts | 165° |
| 2026-05-07 17:08 | 48.89399 | 8.76895 | 35051 ft | 449 kts | 177° |
| 2026-05-07 17:08 | 48.83219 | 8.76474 | 35051 ft | 443 kts | 193° |
| 2026-05-07 17:09 | 48.77187 | 8.74842 | 35050 ft | 444 kts | 192° |
| 2026-05-07 17:09 | 48.74956 | 8.74246 | 35035 ft | 444 kts | 193° |
| 2026-05-07 17:26 | 48.69992 | 8.73042 | 35033 ft | 443 kts | 192° |
| 2026-05-07 17:27 | 48.63919 | 8.71413 | 34945 ft | 445 kts | 193° |
| 2026-05-07 17:27 | 48.60879 | 8.70567 | 34584 ft | 444 kts | 193° |
| 2026-05-07 17:27 | 48.57838 | 8.69722 | 34225 ft | 444 kts | 193° |
| 2026-05-07 17:28 | 48.54795 | 8.68885 | 33847 ft | 445 kts | 193° |
| 2026-05-07 17:28 | 48.51747 | 8.68055 | 33422 ft | 444 kts | 193° |
| 2026-05-07 17:28 | 48.48755 | 8.67209 | 32745 ft | 440 kts | 194° |
| 2026-05-07 17:28 | 48.45781 | 8.66326 | 32088 ft | 431 kts | 194° |
| 2026-05-07 17:29 | 48.42864 | 8.65435 | 31440 ft | 423 kts | 195° |
| 2026-05-07 17:29 | 48.40005 | 8.64556 | 30810 ft | 416 kts | 194° |
| 2026-05-07 17:29 | 48.37189 | 8.63692 | 30192 ft | 409 kts | 194° |
| 2026-05-07 17:29 | 48.34421 | 8.62848 | 29482 ft | 403 kts | 194° |
| 2026-05-07 17:30 | 48.31699 | 8.62024 | 28766 ft | 396 kts | 194° |
| 2026-05-07 17:30 | 48.29014 | 8.61216 | 28073 ft | 390 kts | 194° |
| 2026-05-07 17:30 | 48.26378 | 8.60426 | 27398 ft | 384 kts | 194° |
| 2026-05-07 17:30 | 48.23775 | 8.59649 | 26675 ft | 380 kts | 194° |
| 2026-05-07 17:31 | 48.21194 | 8.58877 | 25908 ft | 377 kts | 194° |
| 2026-05-07 17:31 | 48.18628 | 8.58109 | 25157 ft | 374 kts | 194° |
| 2026-05-07 17:31 | 48.16084 | 8.57347 | 24427 ft | 371 kts | 194° |
| 2026-05-07 17:31 | 48.13559 | 8.56592 | 23710 ft | 369 kts | 194° |
| 2026-05-07 17:32 | 48.11052 | 8.55847 | 22876 ft | 366 kts | 193° |
| 2026-05-07 17:32 | 48.08564 | 8.55110 | 22076 ft | 363 kts | 193° |
| 2026-05-07 17:32 | 48.06096 | 8.54380 | 21283 ft | 360 kts | 193° |
| 2026-05-07 17:32 | 48.04469 | 8.53901 | 20770 ft | 358 kts | 193° |
| 2026-05-07 17:33 | 48.01238 | 8.52949 | 19770 ft | 355 kts | 193° |
| 2026-05-07 17:33 | 47.98816 | 8.52233 | 19033 ft | 353 kts | 193° |
| 2026-05-07 17:33 | 47.96412 | 8.51520 | 18312 ft | 351 kts | 193° |
| 2026-05-07 17:33 | 47.94023 | 8.50814 | 17497 ft | 349 kts | 193° |
| 2026-05-07 17:34 | 47.91647 | 8.50113 | 16711 ft | 347 kts | 193° |
| 2026-05-07 17:34 | 47.89282 | 8.49414 | 15932 ft | 345 kts | 193° |
| 2026-05-07 17:34 | 47.86925 | 8.48720 | 15175 ft | 343 kts | 193° |
| 2026-05-07 17:34 | 47.84586 | 8.48033 | 14438 ft | 341 kts | 193° |
| 2026-05-07 17:35 | 47.82272 | 8.47352 | 13689 ft | 338 kts | 193° |
| 2026-05-07 17:35 | 47.79995 | 8.46681 | 12902 ft | 336 kts | 193° |
| 2026-05-07 17:35 | 47.77711 | 8.46009 | 12119 ft | 333 kts | 193° |
| 2026-05-07 17:35 | 47.75446 | 8.45344 | 11348 ft | 330 kts | 194° |
| 2026-05-07 17:36 | 47.73233 | 8.44696 | 10596 ft | 318 kts | 194° |
| 2026-05-07 17:36 | 47.71097 | 8.44071 | 9861 ft | 308 kts | 194° |
| 2026-05-07 17:36 | 47.69019 | 8.43465 | 9063 ft | 300 kts | 193° |
| 2026-05-07 17:36 | 47.66999 | 8.42879 | 8331 ft | 291 kts | 193° |
| 2026-05-07 17:37 | 47.65127 | 8.41983 | 7687 ft | 277 kts | 213° |
| 2026-05-07 17:37 | 47.63778 | 8.40067 | 7071 ft | 266 kts | 240° |
| 2026-05-07 17:37 | 47.63232 | 8.37532 | 6461 ft | 257 kts | 269° |
| 2026-05-07 17:37 | 47.63596 | 8.34999 | 5811 ft | 251 kts | 298° |
| 2026-05-07 17:38 | 47.64608 | 8.32934 | 5184 ft | 245 kts | 304° |
| 2026-05-07 17:38 | 47.65165 | 8.30672 | 5046 ft | 229 kts | 272° |
| 2026-05-07 17:38 | 47.64822 | 8.28386 | 5032 ft | 224 kts | 240° |
| 2026-05-07 17:38 | 47.63738 | 8.26852 | 5008 ft | 217 kts | 206° |
| 2026-05-07 17:39 | 47.62261 | 8.26522 | 5013 ft | 219 kts | 171° |
| 2026-05-07 17:39 | 47.60907 | 8.27498 | 5015 ft | 220 kts | 136° |
| 2026-05-07 17:39 | 47.60186 | 8.29475 | 5021 ft | 222 kts | 105° |
| 2026-05-07 17:39 | 47.59749 | 8.31682 | 4977 ft | 224 kts | 107° |
| 2026-05-07 17:40 | 47.59290 | 8.33892 | 4777 ft | 223 kts | 106° |
| 2026-05-07 17:40 | 47.58834 | 8.36076 | 4522 ft | 221 kts | 106° |
| 2026-05-07 17:40 | 47.58386 | 8.38227 | 4282 ft | 215 kts | 106° |
| 2026-05-07 17:40 | 47.57753 | 8.40166 | 4014 ft | 205 kts | 125° |
| 2026-05-07 17:41 | 47.56839 | 8.41716 | 3760 ft | 196 kts | 135° |
| 2026-05-07 17:41 | 47.55873 | 8.43096 | 3513 ft | 187 kts | 136° |
| 2026-05-07 17:41 | 47.54959 | 8.44359 | 3262 ft | 175 kts | 136° |
| 2026-05-07 17:41 | 47.54101 | 8.45537 | 3034 ft | 163 kts | 136° |
| 2026-05-07 17:42 | 47.53292 | 8.46647 | 2803 ft | 156 kts | 137° |
| 2026-05-07 17:42 | 47.52508 | 8.47724 | 2591 ft | 155 kts | 136° |
| 2026-05-07 17:42 | 47.51715 | 8.48811 | 2362 ft | 154 kts | 137° |
| 2026-05-07 17:42 | 47.50929 | 8.49886 | 2164 ft | 153 kts | 137° |
| 2026-05-07 17:43 | 47.50149 | 8.50950 | 1958 ft | 152 kts | 137° |
| 2026-05-07 17:43 | 47.49370 | 8.52011 | 1752 ft | 152 kts | 136° |
| 2026-05-07 17:43 | 47.48590 | 8.53077 | 1583 ft | 154 kts | 137° |
| 2026-05-07 17:43 | 47.47805 | 8.54159 | 1404 ft | 149 kts | 137° |
| 2026-05-07 17:44 | 47.47171 | 8.55024 | 1383 ft | 95 kts | 137° |
| 2026-05-07 17:44 | 47.46810 | 8.55518 | 1399 ft | 46 kts | 137° |
| 2026-05-07 17:44 | 47.46601 | 8.55801 | 1396 ft | 31 kts | 137° |
| 2026-05-07 17:44 | 47.46444 | 8.55929 | 1408 ft | 18 kts | 161° |
| 2026-05-07 17:45 | 47.46330 | 8.55972 | 1403 ft | 15 kts | 167° |
| 2026-05-07 17:45 | 47.46240 | 8.56001 | 1406 ft | 11 kts | 168° |
| 2026-05-07 17:45 | 47.46176 | 8.56002 | 1406 ft | 8 kts | 185° |
| 2026-05-07 17:45 | 47.46099 | 8.55990 | 1407 ft | 16 kts | 186° |
| 2026-05-07 17:46 | 47.45974 | 8.55968 | 1406 ft | 18 kts | 191° |
| 2026-05-07 17:46 | 47.45865 | 8.55914 | 1414 ft | 15 kts | 200° |
| 2026-05-07 17:46 | 47.45775 | 8.55876 | 1411 ft | 13 kts | 188° |
| 2026-05-07 17:46 | 47.45685 | 8.55862 | 1413 ft | 13 kts | 186° |
| 2026-05-07 17:47 | 47.45645 | 8.55771 | 1413 ft | 13 kts | 274° |
| 2026-05-07 17:47 | 47.45654 | 8.55636 | 1404 ft | 14 kts | 276° |
| 2026-05-07 17:47 | 47.45654 | 8.55512 | 1403 ft | 9 kts | 239° |
| 2026-05-07 17:47 | 47.45602 | 8.55478 | 1412 ft | 9 kts | 188° |
| 2026-05-07 17:48 | 47.45532 | 8.55486 | 1404 ft | 9 kts | 130° |
| 2026-05-07 17:48 | 47.45522 | 8.55559 | 1406 ft | 7 kts | 97° |
| 2026-05-07 17:48 | 47.45514 | 8.55621 | 1412 ft | 7 kts | 115° |
| 2026-05-07 17:48 | 47.45451 | 8.55637 | 1409 ft | 10 kts | 186° |
| 2026-05-07 17:49 | 47.45436 | 8.55635 | 1407 ft | 0 kts | 186° |